sensor_id;sensor_type;location;lat;lon;timestamp;P1;durP1;ratioP1;P2;durP2;ratioP2
79128;SDS011;68529;43.286;23.360;2023-08-06T00:02:17;3.03;;;2.10;;
79128;SDS011;68529;43.286;23.360;2023-08-06T00:04:42;4.20;;;2.53;;
79128;SDS011;68529;43.286;23.360;2023-08-06T00:07:07;7.00;;;3.13;;
79128;SDS011;68529;43.286;23.360;2023-08-06T00:09:33;5.60;;;3.60;;
79128;SDS011;68529;43.286;23.360;2023-08-06T00:11:58;7.43;;;3.55;;
79128;SDS011;68529;43.286;23.360;2023-08-06T00:14:24;4.70;;;3.08;;
79128;SDS011;68529;43.286;23.360;2023-08-06T00:16:49;5.00;;;2.85;;
79128;SDS011;68529;43.286;23.360;2023-08-06T00:19:14;4.40;;;2.33;;
79128;SDS011;68529;43.286;23.360;2023-08-06T00:21:40;5.55;;;2.30;;
79128;SDS011;68529;43.286;23.360;2023-08-06T00:24:05;4.53;;;2.88;;
79128;SDS011;68529;43.286;23.360;2023-08-06T00:26:30;4.13;;;2.60;;
79128;SDS011;68529;43.286;23.360;2023-08-06T00:28:56;5.80;;;3.40;;
79128;SDS011;68529;43.286;23.360;2023-08-06T00:31:21;4.72;;;2.50;;
79128;SDS011;68529;43.286;23.360;2023-08-06T00:33:46;4.68;;;2.60;;
79128;SDS011;68529;43.286;23.360;2023-08-06T00:36:12;3.95;;;2.25;;
79128;SDS011;68529;43.286;23.360;2023-08-06T00:38:37;1.65;;;1.55;;
79128;SDS011;68529;43.286;23.360;2023-08-06T00:41:02;3.92;;;2.55;;
79128;SDS011;68529;43.286;23.360;2023-08-06T00:43:28;4.57;;;2.50;;
79128;SDS011;68529;43.286;23.360;2023-08-06T00:45:53;4.18;;;2.83;;
79128;SDS011;68529;43.286;23.360;2023-08-06T00:48:19;5.05;;;2.70;;
79128;SDS011;68529;43.286;23.360;2023-08-06T00:50:45;5.95;;;2.40;;
79128;SDS011;68529;43.286;23.360;2023-08-06T00:53:11;4.40;;;2.28;;
79128;SDS011;68529;43.286;23.360;2023-08-06T00:55:36;2.15;;;1.95;;
79128;SDS011;68529;43.286;23.360;2023-08-06T00:58:02;1.90;;;1.70;;
79128;SDS011;68529;43.286;23.360;2023-08-06T01:00:28;2.80;;;2.00;;
79128;SDS011;68529;43.286;23.360;2023-08-06T01:02:53;2.08;;;1.88;;
79128;SDS011;68529;43.286;23.360;2023-08-06T01:05:20;4.47;;;2.10;;
79128;SDS011;68529;43.286;23.360;2023-08-06T01:07:58;5.65;;;2.33;;
79128;SDS011;68529;43.286;23.360;2023-08-06T01:15:45;3.33;;;2.17;;
79128;SDS011;68529;43.286;23.360;2023-08-06T01:18:14;2.40;;;2.20;;
79128;SDS011;68529;43.286;23.360;2023-08-06T01:20:40;2.80;;;1.80;;
79128;SDS011;68529;43.286;23.360;2023-08-06T01:23:05;7.22;;;2.08;;
79128;SDS011;68529;43.286;23.360;2023-08-06T01:25:34;2.10;;;1.90;;
79128;SDS011;68529;43.286;23.360;2023-08-06T01:28:15;2.97;;;1.98;;
79128;SDS011;68529;43.286;23.360;2023-08-06T01:30:52;2.60;;;2.08;;
79128;SDS011;68529;43.286;23.360;2023-08-06T01:33:22;2.67;;;2.20;;
79128;SDS011;68529;43.286;23.360;2023-08-06T01:35:48;2.75;;;1.67;;
79128;SDS011;68529;43.286;23.360;2023-08-06T01:38:14;2.17;;;1.98;;
79128;SDS011;68529;43.286;23.360;2023-08-06T01:40:40;2.25;;;2.05;;
79128;SDS011;68529;43.286;23.360;2023-08-06T01:43:05;2.33;;;1.90;;
79128;SDS011;68529;43.286;23.360;2023-08-06T01:45:31;2.38;;;1.73;;
79128;SDS011;68529;43.286;23.360;2023-08-06T01:47:56;3.90;;;2.08;;
79128;SDS011;68529;43.286;23.360;2023-08-06T01:50:22;2.63;;;2.00;;
79128;SDS011;68529;43.286;23.360;2023-08-06T01:52:47;2.58;;;1.83;;
79128;SDS011;68529;43.286;23.360;2023-08-06T01:55:12;2.10;;;1.95;;
79128;SDS011;68529;43.286;23.360;2023-08-06T01:57:38;1.88;;;1.77;;
79128;SDS011;68529;43.286;23.360;2023-08-06T02:00:03;2.33;;;2.13;;
79128;SDS011;68529;43.286;23.360;2023-08-06T02:02:29;2.40;;;2.20;;
79128;SDS011;68529;43.286;23.360;2023-08-06T02:04:54;2.95;;;2.20;;
79128;SDS011;68529;43.286;23.360;2023-08-06T02:07:20;2.63;;;2.20;;
79128;SDS011;68529;43.286;23.360;2023-08-06T02:09:45;3.45;;;2.10;;
79128;SDS011;68529;43.286;23.360;2023-08-06T02:12:11;3.13;;;2.22;;
79128;SDS011;68529;43.286;23.360;2023-08-06T02:14:36;3.63;;;2.38;;
79128;SDS011;68529;43.286;23.360;2023-08-06T02:17:01;2.38;;;2.10;;
79128;SDS011;68529;43.286;23.360;2023-08-06T02:19:27;2.63;;;2.35;;
79128;SDS011;68529;43.286;23.360;2023-08-06T02:21:52;4.18;;;2.50;;
79128;SDS011;68529;43.286;23.360;2023-08-06T02:24:17;3.38;;;2.10;;
79128;SDS011;68529;43.286;23.360;2023-08-06T02:26:43;3.00;;;2.47;;
79128;SDS011;68529;43.286;23.360;2023-08-06T02:29:08;2.60;;;2.17;;
79128;SDS011;68529;43.286;23.360;2023-08-06T02:31:33;2.47;;;2.22;;
79128;SDS011;68529;43.286;23.360;2023-08-06T02:33:59;3.50;;;2.22;;
79128;SDS011;68529;43.286;23.360;2023-08-06T02:36:24;4.53;;;2.80;;
79128;SDS011;68529;43.286;23.360;2023-08-06T02:38:52;3.35;;;2.40;;
79128;SDS011;68529;43.286;23.360;2023-08-06T02:41:17;2.58;;;2.38;;
79128;SDS011;68529;43.286;23.360;2023-08-06T02:43:43;3.65;;;2.45;;
79128;SDS011;68529;43.286;23.360;2023-08-06T02:46:08;11.35;;;4.40;;
79128;SDS011;68529;43.286;23.360;2023-08-06T02:48:33;18.63;;;6.53;;
79128;SDS011;68529;43.286;23.360;2023-08-06T02:50:59;6.70;;;3.58;;
79128;SDS011;68529;43.286;23.360;2023-08-06T02:53:25;5.15;;;3.28;;
79128;SDS011;68529;43.286;23.360;2023-08-06T02:55:50;5.53;;;2.97;;
79128;SDS011;68529;43.286;23.360;2023-08-06T02:58:16;5.45;;;2.63;;
79128;SDS011;68529;43.286;23.360;2023-08-06T03:00:43;3.58;;;2.70;;
79128;SDS011;68529;43.286;23.360;2023-08-06T03:03:09;4.40;;;2.67;;
79128;SDS011;68529;43.286;23.360;2023-08-06T03:05:34;2.60;;;2.33;;
79128;SDS011;68529;43.286;23.360;2023-08-06T03:08:00;2.67;;;2.15;;
79128;SDS011;68529;43.286;23.360;2023-08-06T03:10:25;4.43;;;2.13;;
79128;SDS011;68529;43.286;23.360;2023-08-06T03:12:50;2.35;;;2.15;;
79128;SDS011;68529;43.286;23.360;2023-08-06T03:15:16;2.92;;;2.38;;
79128;SDS011;68529;43.286;23.360;2023-08-06T03:33:22;3.40;;;2.00;;
79128;SDS011;68529;43.286;23.360;2023-08-06T03:35:47;2.10;;;2.00;;
79128;SDS011;68529;43.286;23.360;2023-08-06T03:38:13;2.60;;;2.28;;
79128;SDS011;68529;43.286;23.360;2023-08-06T03:40:38;4.60;;;2.20;;
79128;SDS011;68529;43.286;23.360;2023-08-06T03:43:04;2.20;;;2.08;;
79128;SDS011;68529;43.286;23.360;2023-08-06T03:45:29;2.97;;;2.58;;
79128;SDS011;68529;43.286;23.360;2023-08-06T03:47:54;2.53;;;2.30;;
79128;SDS011;68529;43.286;23.360;2023-08-06T03:50:20;2.33;;;2.10;;
79128;SDS011;68529;43.286;23.360;2023-08-06T03:52:45;3.42;;;2.40;;
79128;SDS011;68529;43.286;23.360;2023-08-06T03:55:10;2.00;;;1.90;;
79128;SDS011;68529;43.286;23.360;2023-08-06T03:57:36;2.33;;;2.13;;
79128;SDS011;68529;43.286;23.360;2023-08-06T04:00:01;2.75;;;2.55;;
79128;SDS011;68529;43.286;23.360;2023-08-06T04:02:28;2.40;;;2.20;;
79128;SDS011;68529;43.286;23.360;2023-08-06T04:04:54;2.67;;;2.40;;
79128;SDS011;68529;43.286;23.360;2023-08-06T04:07:19;2.65;;;2.40;;
79128;SDS011;68529;43.286;23.360;2023-08-06T04:09:51;5.07;;;2.53;;
79128;SDS011;68529;43.286;23.360;2023-08-06T04:12:18;3.88;;;2.35;;
79128;SDS011;68529;43.286;23.360;2023-08-06T04:14:43;2.92;;;2.13;;
79128;SDS011;68529;43.286;23.360;2023-08-06T04:17:08;4.35;;;2.42;;
79128;SDS011;68529;43.286;23.360;2023-08-06T04:19:34;5.40;;;2.30;;
79128;SDS011;68529;43.286;23.360;2023-08-06T04:21:59;4.13;;;2.50;;
79128;SDS011;68529;43.286;23.360;2023-08-06T04:24:24;3.10;;;2.00;;
79128;SDS011;68529;43.286;23.360;2023-08-06T04:26:50;3.40;;;2.28;;
79128;SDS011;68529;43.286;23.360;2023-08-06T04:29:15;2.13;;;1.95;;
79128;SDS011;68529;43.286;23.360;2023-08-06T04:31:40;2.47;;;2.28;;
79128;SDS011;68529;43.286;23.360;2023-08-06T04:34:06;4.38;;;2.30;;
79128;SDS011;68529;43.286;23.360;2023-08-06T04:36:33;3.00;;;2.28;;
79128;SDS011;68529;43.286;23.360;2023-08-06T04:38:58;3.53;;;2.55;;
79128;SDS011;68529;43.286;23.360;2023-08-06T04:41:23;3.45;;;2.45;;
79128;SDS011;68529;43.286;23.360;2023-08-06T04:43:49;2.88;;;2.50;;
79128;SDS011;68529;43.286;23.360;2023-08-06T04:46:14;2.45;;;2.25;;
79128;SDS011;68529;43.286;23.360;2023-08-06T04:48:39;3.78;;;2.35;;
79128;SDS011;68529;43.286;23.360;2023-08-06T04:51:05;2.83;;;2.50;;
79128;SDS011;68529;43.286;23.360;2023-08-06T04:53:30;3.13;;;2.15;;
79128;SDS011;68529;43.286;23.360;2023-08-06T04:55:55;3.03;;;2.38;;
79128;SDS011;68529;43.286;23.360;2023-08-06T04:58:21;2.53;;;2.10;;
79128;SDS011;68529;43.286;23.360;2023-08-06T05:00:46;2.80;;;2.35;;
79128;SDS011;68529;43.286;23.360;2023-08-06T05:03:12;5.38;;;2.20;;
79128;SDS011;68529;43.286;23.360;2023-08-06T05:05:39;2.15;;;2.03;;
79128;SDS011;68529;43.286;23.360;2023-08-06T05:08:06;3.85;;;1.98;;
79128;SDS011;68529;43.286;23.360;2023-08-06T05:10:31;3.60;;;2.60;;
79128;SDS011;68529;43.286;23.360;2023-08-06T05:12:56;1.98;;;1.77;;
79128;SDS011;68529;43.286;23.360;2023-08-06T05:15:22;3.80;;;1.95;;
79128;SDS011;68529;43.286;23.360;2023-08-06T05:17:47;2.22;;;2.03;;
79128;SDS011;68529;43.286;23.360;2023-08-06T05:20:12;2.60;;;2.40;;
79128;SDS011;68529;43.286;23.360;2023-08-06T05:22:38;2.30;;;2.10;;
79128;SDS011;68529;43.286;23.360;2023-08-06T05:25:03;2.00;;;1.75;;
79128;SDS011;68529;43.286;23.360;2023-08-06T05:27:29;2.58;;;1.98;;
79128;SDS011;68529;43.286;23.360;2023-08-06T05:29:55;3.33;;;2.33;;
79128;SDS011;68529;43.286;23.360;2023-08-06T05:32:21;2.95;;;2.67;;
79128;SDS011;68529;43.286;23.360;2023-08-06T05:34:47;3.58;;;2.95;;
79128;SDS011;68529;43.286;23.360;2023-08-06T05:37:12;5.70;;;2.75;;
79128;SDS011;68529;43.286;23.360;2023-08-06T05:39:38;3.15;;;2.47;;
79128;SDS011;68529;43.286;23.360;2023-08-06T05:42:03;3.83;;;2.10;;
79128;SDS011;68529;43.286;23.360;2023-08-06T05:44:29;4.50;;;2.30;;
79128;SDS011;68529;43.286;23.360;2023-08-06T05:46:54;2.05;;;1.95;;
79128;SDS011;68529;43.286;23.360;2023-08-06T05:49:19;2.28;;;2.08;;
79128;SDS011;68529;43.286;23.360;2023-08-06T05:51:45;2.17;;;1.98;;
79128;SDS011;68529;43.286;23.360;2023-08-06T05:54:10;3.47;;;1.70;;
79128;SDS011;68529;43.286;23.360;2023-08-06T05:56:35;2.45;;;2.10;;
79128;SDS011;68529;43.286;23.360;2023-08-06T05:59:01;3.00;;;1.90;;
79128;SDS011;68529;43.286;23.360;2023-08-06T06:01:26;3.50;;;1.83;;
79128;SDS011;68529;43.286;23.360;2023-08-06T06:03:52;3.28;;;1.92;;
79128;SDS011;68529;43.286;23.360;2023-08-06T06:06:17;3.00;;;1.90;;
79128;SDS011;68529;43.286;23.360;2023-08-06T06:08:43;1.58;;;1.40;;
79128;SDS011;68529;43.286;23.360;2023-08-06T06:11:09;1.73;;;1.40;;
79128;SDS011;68529;43.286;23.360;2023-08-06T06:13:34;2.40;;;2.20;;
79128;SDS011;68529;43.286;23.360;2023-08-06T06:16:00;3.15;;;2.13;;
79128;SDS011;68529;43.286;23.360;2023-08-06T06:18:25;3.65;;;1.80;;
79128;SDS011;68529;43.286;23.360;2023-08-06T06:20:51;1.85;;;1.70;;
79128;SDS011;68529;43.286;23.360;2023-08-06T06:23:16;1.98;;;1.65;;
79128;SDS011;68529;43.286;23.360;2023-08-06T06:25:42;2.50;;;1.98;;
79128;SDS011;68529;43.286;23.360;2023-08-06T06:28:08;1.98;;;1.83;;
79128;SDS011;68529;43.286;23.360;2023-08-06T06:30:34;1.67;;;1.58;;
79128;SDS011;68529;43.286;23.360;2023-08-06T06:32:59;1.73;;;1.63;;
79128;SDS011;68529;43.286;23.360;2023-08-06T06:35:25;2.17;;;2.00;;
79128;SDS011;68529;43.286;23.360;2023-08-06T06:37:50;1.77;;;1.67;;
79128;SDS011;68529;43.286;23.360;2023-08-06T06:40:16;2.80;;;2.10;;
79128;SDS011;68529;43.286;23.360;2023-08-06T06:42:42;2.13;;;1.92;;
79128;SDS011;68529;43.286;23.360;2023-08-06T06:45:07;1.73;;;1.63;;
79128;SDS011;68529;43.286;23.360;2023-08-06T06:47:33;2.90;;;1.92;;
79128;SDS011;68529;43.286;23.360;2023-08-06T06:49:59;2.53;;;2.03;;
79128;SDS011;68529;43.286;23.360;2023-08-06T06:52:24;3.90;;;2.05;;
79128;SDS011;68529;43.286;23.360;2023-08-06T06:54:49;2.00;;;1.60;;
79128;SDS011;68529;43.286;23.360;2023-08-06T06:57:15;2.50;;;2.30;;
79128;SDS011;68529;43.286;23.360;2023-08-06T06:59:40;1.63;;;1.52;;
79128;SDS011;68529;43.286;23.360;2023-08-06T07:02:06;1.67;;;1.58;;
79128;SDS011;68529;43.286;23.360;2023-08-06T07:04:31;3.40;;;1.73;;
79128;SDS011;68529;43.286;23.360;2023-08-06T07:06:56;1.92;;;1.73;;
79128;SDS011;68529;43.286;23.360;2023-08-06T07:09:22;2.33;;;1.88;;
79128;SDS011;68529;43.286;23.360;2023-08-06T07:11:47;2.03;;;1.80;;
79128;SDS011;68529;43.286;23.360;2023-08-06T07:14:12;2.85;;;1.90;;
79128;SDS011;68529;43.286;23.360;2023-08-06T07:16:39;2.10;;;1.90;;
79128;SDS011;68529;43.286;23.360;2023-08-06T07:19:04;2.60;;;1.85;;
79128;SDS011;68529;43.286;23.360;2023-08-06T07:21:30;2.75;;;1.70;;
79128;SDS011;68529;43.286;23.360;2023-08-06T07:23:56;1.92;;;1.83;;
79128;SDS011;68529;43.286;23.360;2023-08-06T07:26:22;1.95;;;1.85;;
79128;SDS011;68529;43.286;23.360;2023-08-06T07:28:47;2.40;;;2.20;;
79128;SDS011;68529;43.286;23.360;2023-08-06T07:31:13;3.15;;;1.70;;
79128;SDS011;68529;43.286;23.360;2023-08-06T07:33:38;2.95;;;1.50;;
79128;SDS011;68529;43.286;23.360;2023-08-06T07:36:13;2.15;;;1.83;;
79128;SDS011;68529;43.286;23.360;2023-08-06T07:38:39;1.70;;;1.60;;
79128;SDS011;68529;43.286;23.360;2023-08-06T07:41:05;2.03;;;1.70;;
79128;SDS011;68529;43.286;23.360;2023-08-06T07:43:31;2.58;;;1.77;;
79128;SDS011;68529;43.286;23.360;2023-08-06T07:45:59;1.92;;;1.75;;
79128;SDS011;68529;43.286;23.360;2023-08-06T07:48:26;2.22;;;1.98;;
79128;SDS011;68529;43.286;23.360;2023-08-06T07:50:52;2.00;;;1.90;;
79128;SDS011;68529;43.286;23.360;2023-08-06T07:53:21;1.70;;;1.60;;
79128;SDS011;68529;43.286;23.360;2023-08-06T07:55:49;1.52;;;1.42;;
79128;SDS011;68529;43.286;23.360;2023-08-06T07:58:18;1.90;;;1.80;;
79128;SDS011;68529;43.286;23.360;2023-08-06T08:00:44;2.20;;;1.75;;
79128;SDS011;68529;43.286;23.360;2023-08-06T08:03:13;1.73;;;1.63;;
79128;SDS011;68529;43.286;23.360;2023-08-06T08:05:40;1.90;;;1.80;;
79128;SDS011;68529;43.286;23.360;2023-08-06T08:08:06;2.67;;;1.67;;
79128;SDS011;68529;43.286;23.360;2023-08-06T08:10:31;1.65;;;1.52;;
79128;SDS011;68529;43.286;23.360;2023-08-06T08:12:57;2.03;;;1.85;;
79128;SDS011;68529;43.286;23.360;2023-08-06T08:15:24;2.05;;;1.85;;
79128;SDS011;68529;43.286;23.360;2023-08-06T08:17:51;1.65;;;1.55;;
79128;SDS011;68529;43.286;23.360;2023-08-06T08:20:17;1.70;;;1.60;;
79128;SDS011;68529;43.286;23.360;2023-08-06T08:22:42;1.40;;;1.30;;
79128;SDS011;68529;43.286;23.360;2023-08-06T08:25:09;1.70;;;1.60;;
79128;SDS011;68529;43.286;23.360;2023-08-06T08:27:35;1.80;;;1.67;;
79128;SDS011;68529;43.286;23.360;2023-08-06T08:30:01;1.50;;;1.40;;
79128;SDS011;68529;43.286;23.360;2023-08-06T08:32:26;1.70;;;1.60;;
79128;SDS011;68529;43.286;23.360;2023-08-06T08:34:52;1.75;;;1.35;;
79128;SDS011;68529;43.286;23.360;2023-08-06T08:37:18;1.77;;;1.52;;
79128;SDS011;68529;43.286;23.360;2023-08-06T08:39:44;1.63;;;1.52;;
79128;SDS011;68529;43.286;23.360;2023-08-06T08:42:09;2.72;;;1.80;;
79128;SDS011;68529;43.286;23.360;2023-08-06T08:44:35;1.60;;;1.50;;
79128;SDS011;68529;43.286;23.360;2023-08-06T08:47:04;1.92;;;1.80;;
79128;SDS011;68529;43.286;23.360;2023-08-06T08:49:31;1.27;;;1.27;;
79128;SDS011;68529;43.286;23.360;2023-08-06T08:51:57;2.50;;;1.70;;
79128;SDS011;68529;43.286;23.360;2023-08-06T08:54:26;1.55;;;1.45;;
79128;SDS011;68529;43.286;23.360;2023-08-06T08:56:53;1.65;;;1.55;;
79128;SDS011;68529;43.286;23.360;2023-08-06T08:59:20;1.60;;;1.50;;
79128;SDS011;68529;43.286;23.360;2023-08-06T09:01:45;2.30;;;2.10;;
79128;SDS011;68529;43.286;23.360;2023-08-06T09:04:16;2.20;;;2.00;;
79128;SDS011;68529;43.286;23.360;2023-08-06T09:06:42;1.50;;;1.40;;
79128;SDS011;68529;43.286;23.360;2023-08-06T09:09:20;1.85;;;1.75;;
79128;SDS011;68529;43.286;23.360;2023-08-06T09:11:50;2.05;;;1.88;;
79128;SDS011;68529;43.286;23.360;2023-08-06T09:14:16;1.73;;;1.63;;
79128;SDS011;68529;43.286;23.360;2023-08-06T09:16:43;1.70;;;1.60;;
79128;SDS011;68529;43.286;23.360;2023-08-06T09:19:09;1.90;;;1.80;;
79128;SDS011;68529;43.286;23.360;2023-08-06T09:21:37;2.00;;;1.90;;
79128;SDS011;68529;43.286;23.360;2023-08-06T09:24:10;1.85;;;1.75;;
79128;SDS011;68529;43.286;23.360;2023-08-06T09:26:37;2.15;;;1.65;;
79128;SDS011;68529;43.286;23.360;2023-08-06T09:29:06;2.10;;;1.90;;
79128;SDS011;68529;43.286;23.360;2023-08-06T09:31:45;2.20;;;2.00;;
79128;SDS011;68529;43.286;23.360;2023-08-06T09:34:19;1.92;;;1.83;;
79128;SDS011;68529;43.286;23.360;2023-08-06T09:36:48;2.13;;;2.00;;
79128;SDS011;68529;43.286;23.360;2023-08-06T09:39:18;2.17;;;1.85;;
79128;SDS011;68529;43.286;23.360;2023-08-06T09:41:44;2.58;;;2.38;;
79128;SDS011;68529;43.286;23.360;2023-08-06T09:46:49;3.13;;;2.30;;
79128;SDS011;68529;43.286;23.360;2023-08-06T09:49:17;2.85;;;2.10;;
79128;SDS011;68529;43.286;23.360;2023-08-06T09:51:44;2.50;;;2.30;;
79128;SDS011;68529;43.286;23.360;2023-08-06T09:54:12;2.53;;;2.33;;
79128;SDS011;68529;43.286;23.360;2023-08-06T09:56:38;2.08;;;1.98;;
79128;SDS011;68529;43.286;23.360;2023-08-06T09:59:06;2.65;;;2.13;;
79128;SDS011;68529;43.286;23.360;2023-08-06T10:01:32;3.63;;;2.28;;
79128;SDS011;68529;43.286;23.360;2023-08-06T10:03:59;2.40;;;2.20;;
79128;SDS011;68529;43.286;23.360;2023-08-06T10:06:26;2.97;;;2.22;;
79128;SDS011;68529;43.286;23.360;2023-08-06T10:08:53;4.03;;;2.45;;
79128;SDS011;68529;43.286;23.360;2023-08-06T10:11:19;3.08;;;2.30;;
79128;SDS011;68529;43.286;23.360;2023-08-06T10:13:47;2.40;;;2.20;;
79128;SDS011;68529;43.286;23.360;2023-08-06T10:16:13;3.45;;;2.28;;
79128;SDS011;68529;43.286;23.360;2023-08-06T10:18:40;2.33;;;2.13;;
79128;SDS011;68529;43.286;23.360;2023-08-06T10:21:07;2.22;;;1.98;;
79128;SDS011;68529;43.286;23.360;2023-08-06T10:23:35;2.30;;;2.10;;
79128;SDS011;68529;43.286;23.360;2023-08-06T10:26:03;2.50;;;2.30;;
79128;SDS011;68529;43.286;23.360;2023-08-06T10:28:47;2.50;;;2.33;;
79128;SDS011;68529;43.286;23.360;2023-08-06T10:31:12;2.50;;;2.40;;
79128;SDS011;68529;43.286;23.360;2023-08-06T10:33:47;2.83;;;2.60;;
79128;SDS011;68529;43.286;23.360;2023-08-06T10:36:13;2.30;;;2.15;;
79128;SDS011;68529;43.286;23.360;2023-08-06T10:38:49;2.97;;;2.38;;
79128;SDS011;68529;43.286;23.360;2023-08-06T10:41:33;2.88;;;2.67;;
79128;SDS011;68529;43.286;23.360;2023-08-06T10:44:08;3.83;;;2.65;;
79128;SDS011;68529;43.286;23.360;2023-08-06T10:46:35;2.50;;;2.40;;
79128;SDS011;68529;43.286;23.360;2023-08-06T10:49:01;2.83;;;2.63;;
79128;SDS011;68529;43.286;23.360;2023-08-06T10:51:28;2.65;;;2.45;;
79128;SDS011;68529;43.286;23.360;2023-08-06T10:53:55;2.58;;;2.35;;
79128;SDS011;68529;43.286;23.360;2023-08-06T10:56:23;2.60;;;2.40;;
79128;SDS011;68529;43.286;23.360;2023-08-06T10:58:56;2.95;;;2.75;;
79128;SDS011;68529;43.286;23.360;2023-08-06T11:01:23;2.70;;;2.60;;
79128;SDS011;68529;43.286;23.360;2023-08-06T11:03:50;3.03;;;2.78;;
79128;SDS011;68529;43.286;23.360;2023-08-06T11:06:18;3.17;;;2.90;;
79128;SDS011;68529;43.286;23.360;2023-08-06T11:08:48;3.30;;;3.00;;
79128;SDS011;68529;43.286;23.360;2023-08-06T11:11:16;3.35;;;2.83;;
79128;SDS011;68529;43.286;23.360;2023-08-06T11:13:43;3.85;;;3.45;;
79128;SDS011;68529;43.286;23.360;2023-08-06T11:16:11;3.08;;;2.78;;
79128;SDS011;68529;43.286;23.360;2023-08-06T11:18:38;5.35;;;3.22;;
79128;SDS011;68529;43.286;23.360;2023-08-06T11:21:05;2.97;;;2.70;;
79128;SDS011;68529;43.286;23.360;2023-08-06T11:23:30;4.07;;;3.10;;
79128;SDS011;68529;43.286;23.360;2023-08-06T11:25:56;2.92;;;2.72;;
79128;SDS011;68529;43.286;23.360;2023-08-06T11:28:22;3.58;;;3.15;;
79128;SDS011;68529;43.286;23.360;2023-08-06T11:30:48;4.22;;;3.03;;
79128;SDS011;68529;43.286;23.360;2023-08-06T11:33:19;3.45;;;3.15;;
79128;SDS011;68529;43.286;23.360;2023-08-06T11:35:46;4.93;;;3.88;;
79128;SDS011;68529;43.286;23.360;2023-08-06T11:38:13;3.45;;;3.13;;
79128;SDS011;68529;43.286;23.360;2023-08-06T11:40:39;4.72;;;3.33;;
79128;SDS011;68529;43.286;23.360;2023-08-06T11:43:05;4.25;;;2.70;;
79128;SDS011;68529;43.286;23.360;2023-08-06T11:45:31;8.23;;;3.25;;
79128;SDS011;68529;43.286;23.360;2023-08-06T11:47:56;4.88;;;2.35;;
79128;SDS011;68529;43.286;23.360;2023-08-06T11:50:24;6.05;;;2.00;;
79128;SDS011;68529;43.286;23.360;2023-08-06T11:52:59;4.25;;;2.60;;
79128;SDS011;68529;43.286;23.360;2023-08-06T11:55:25;3.17;;;2.00;;
79128;SDS011;68529;43.286;23.360;2023-08-06T11:57:53;6.13;;;2.50;;
79128;SDS011;68529;43.286;23.360;2023-08-06T12:00:19;3.60;;;2.28;;
79128;SDS011;68529;43.286;23.360;2023-08-06T12:02:47;2.05;;;1.75;;
79128;SDS011;68529;43.286;23.360;2023-08-06T12:05:15;3.55;;;2.30;;
79128;SDS011;68529;43.286;23.360;2023-08-06T12:07:49;2.75;;;1.80;;
79128;SDS011;68529;43.286;23.360;2023-08-06T12:10:17;2.40;;;2.20;;
79128;SDS011;68529;43.286;23.360;2023-08-06T12:12:44;1.92;;;1.83;;
79128;SDS011;68529;43.286;23.360;2023-08-06T12:15:10;2.35;;;1.80;;
79128;SDS011;68529;43.286;23.360;2023-08-06T12:17:36;1.70;;;1.60;;
79128;SDS011;68529;43.286;23.360;2023-08-06T12:20:02;1.90;;;1.77;;
79128;SDS011;68529;43.286;23.360;2023-08-06T12:22:29;2.78;;;2.30;;
79128;SDS011;68529;43.286;23.360;2023-08-06T12:24:59;3.17;;;2.13;;
79128;SDS011;68529;43.286;23.360;2023-08-06T12:27:26;4.38;;;2.13;;
79128;SDS011;68529;43.286;23.360;2023-08-06T12:29:51;2.58;;;2.08;;
79128;SDS011;68529;43.286;23.360;2023-08-06T12:32:17;3.95;;;2.70;;
79128;SDS011;68529;43.286;23.360;2023-08-06T12:34:42;2.10;;;1.90;;
79128;SDS011;68529;43.286;23.360;2023-08-06T12:37:09;2.53;;;2.33;;
79128;SDS011;68529;43.286;23.360;2023-08-06T12:39:35;2.60;;;2.10;;
79128;SDS011;68529;43.286;23.360;2023-08-06T12:42:03;2.50;;;2.30;;
79128;SDS011;68529;43.286;23.360;2023-08-06T12:44:29;2.00;;;1.90;;
79128;SDS011;68529;43.286;23.360;2023-08-06T12:46:55;2.33;;;2.08;;
79128;SDS011;68529;43.286;23.360;2023-08-06T12:49:21;2.28;;;2.08;;
79128;SDS011;68529;43.286;23.360;2023-08-06T12:51:47;2.38;;;2.25;;
79128;SDS011;68529;43.286;23.360;2023-08-06T12:54:13;2.00;;;1.90;;
79128;SDS011;68529;43.286;23.360;2023-08-06T12:56:38;2.03;;;1.92;;
79128;SDS011;68529;43.286;23.360;2023-08-06T12:59:04;2.45;;;2.30;;
79128;SDS011;68529;43.286;23.360;2023-08-06T13:01:29;2.50;;;2.30;;
79128;SDS011;68529;43.286;23.360;2023-08-06T13:03:55;2.90;;;2.28;;
79128;SDS011;68529;43.286;23.360;2023-08-06T13:06:20;2.38;;;2.17;;
79128;SDS011;68529;43.286;23.360;2023-08-06T13:08:46;2.47;;;2.10;;
79128;SDS011;68529;43.286;23.360;2023-08-06T13:11:11;2.20;;;2.10;;
79128;SDS011;68529;43.286;23.360;2023-08-06T13:13:36;2.40;;;2.30;;
79128;SDS011;68529;43.286;23.360;2023-08-06T13:16:02;3.25;;;2.60;;
79128;SDS011;68529;43.286;23.360;2023-08-06T13:18:28;2.88;;;2.67;;
79128;SDS011;68529;43.286;23.360;2023-08-06T13:20:54;2.88;;;2.65;;
79128;SDS011;68529;43.286;23.360;2023-08-06T13:23:20;2.85;;;2.65;;
79128;SDS011;68529;43.286;23.360;2023-08-06T13:25:47;3.30;;;3.10;;
79128;SDS011;68529;43.286;23.360;2023-08-06T13:28:12;3.45;;;3.15;;
79128;SDS011;68529;43.286;23.360;2023-08-06T13:30:41;3.70;;;2.90;;
79128;SDS011;68529;43.286;23.360;2023-08-06T13:33:10;3.63;;;3.33;;
79128;SDS011;68529;43.286;23.360;2023-08-06T13:35:36;3.33;;;3.13;;
79128;SDS011;68529;43.286;23.360;2023-08-06T13:38:03;3.80;;;3.50;;
79128;SDS011;68529;43.286;23.360;2023-08-06T13:40:29;3.80;;;3.50;;
79128;SDS011;68529;43.286;23.360;2023-08-06T13:42:58;3.65;;;3.38;;
79128;SDS011;68529;43.286;23.360;2023-08-06T13:45:24;3.85;;;3.45;;
79128;SDS011;68529;43.286;23.360;2023-08-06T13:47:49;4.00;;;3.45;;
79128;SDS011;68529;43.286;23.360;2023-08-06T13:50:14;3.70;;;3.42;;
79128;SDS011;68529;43.286;23.360;2023-08-06T13:52:40;4.55;;;4.10;;
79128;SDS011;68529;43.286;23.360;2023-08-06T13:55:05;3.90;;;3.60;;
79128;SDS011;68529;43.286;23.360;2023-08-06T13:57:31;3.97;;;3.67;;
79128;SDS011;68529;43.286;23.360;2023-08-06T13:59:57;3.53;;;3.22;;
79128;SDS011;68529;43.286;23.360;2023-08-06T14:02:22;3.75;;;3.45;;
79128;SDS011;68529;43.286;23.360;2023-08-06T14:04:48;4.03;;;3.72;;
79128;SDS011;68529;43.286;23.360;2023-08-06T14:07:13;4.18;;;3.80;;
79128;SDS011;68529;43.286;23.360;2023-08-06T14:09:39;5.22;;;4.65;;
79128;SDS011;68529;43.286;23.360;2023-08-06T14:12:05;3.67;;;3.40;;
79128;SDS011;68529;43.286;23.360;2023-08-06T14:14:31;3.50;;;3.20;;
79128;SDS011;68529;43.286;23.360;2023-08-06T14:16:56;3.75;;;2.90;;
79128;SDS011;68529;43.286;23.360;2023-08-06T14:19:22;3.58;;;2.92;;
79128;SDS011;68529;43.286;23.360;2023-08-06T14:21:47;3.85;;;3.25;;
79128;SDS011;68529;43.286;23.360;2023-08-06T14:24:13;4.07;;;3.70;;
79128;SDS011;68529;43.286;23.360;2023-08-06T14:26:38;4.72;;;4.32;;
79128;SDS011;68529;43.286;23.360;2023-08-06T14:29:04;5.28;;;4.70;;
79128;SDS011;68529;43.286;23.360;2023-08-06T14:31:29;5.97;;;5.57;;
79128;SDS011;68529;43.286;23.360;2023-08-06T14:33:55;5.43;;;5.03;;
79128;SDS011;68529;43.286;23.360;2023-08-06T14:36:20;5.50;;;5.10;;
79128;SDS011;68529;43.286;23.360;2023-08-06T14:38:45;5.75;;;5.25;;
79128;SDS011;68529;43.286;23.360;2023-08-06T14:41:11;5.28;;;4.85;;
79128;SDS011;68529;43.286;23.360;2023-08-06T14:43:36;5.93;;;5.43;;
79128;SDS011;68529;43.286;23.360;2023-08-06T14:46:02;5.50;;;5.00;;
79128;SDS011;68529;43.286;23.360;2023-08-06T14:48:28;6.00;;;5.18;;
79128;SDS011;68529;43.286;23.360;2023-08-06T14:50:54;5.20;;;4.80;;
79128;SDS011;68529;43.286;23.360;2023-08-06T14:53:20;5.47;;;4.97;;